Time;durP1;ratioP1;P1;durP2;ratioP2;P2;SDS_P1;SDS_P2;PMS_P1;PMS_P2;Temp;Humidity;BMP_temperature;BMP_pressure;BME280_temperature;BME280_humidity;BME280_pressure;Samples;Min_cycle;Max_cycle;Signal;HPM_P1;HPM_P2
2021/05/06 00:07:26;;;;;;;2.60;2.40;;;8.40;75.10;;;;;;5015803;28;20177;-84
2021/05/06 00:34:18;;;;;;;3.33;2.10;;;8.00;76.90;;;;;;5000849;28;20253;-84
2021/05/06 00:36:44;;;;;;;2.90;2.03;;;8.20;76.10;;;;;;5018547;28;20178;-84
2021/05/06 00:39:14;;;;;;;2.93;2.00;;;8.10;76.50;;;;;;5019170;28;20182;-84
2021/05/06 01:05:42;;;;;;;3.10;2.10;;;8.10;77.70;;;;;;5016002;28;20181;-84
2021/05/06 01:13:20;;;;;;;2.70;2.30;;;8.00;77.80;;;;;;5014621;28;20201;-85
2021/05/06 01:15:46;;;;;;;2.10;1.90;;;8.10;77.50;;;;;;5014817;28;20166;-84
2021/05/06 01:18:11;;;;;;;2.70;2.47;;;8.10;77.40;;;;;;5014402;28;20196;-86
2021/05/06 01:20:46;;;;;;;3.00;2.07;;;8.10;77.00;;;;;;5014585;28;20241;-84
2021/05/06 01:23:12;;;;;;;4.23;2.57;;;8.10;77.30;;;;;;5014411;28;20213;-85
2021/05/06 01:25:40;;;;;;;2.37;2.17;;;8.10;77.50;;;;;;5014421;28;20244;-85
2021/05/06 01:28:09;;;;;;;2.77;2.00;;;8.10;77.20;;;;;;5013217;28;20177;-84
2021/05/06 01:30:44;;;;;;;2.43;2.23;;;8.20;76.80;;;;;;5014362;28;20186;-86
2021/05/06 01:33:19;;;;;;;4.70;2.43;;;8.10;77.40;;;;;;5014499;28;20232;-85
2021/05/06 01:36:04;;;;;;;3.40;2.33;;;8.10;77.20;;;;;;5013938;28;20192;-84
2021/05/06 01:41:55;;;;;;;5.07;2.37;;;8.00;76.80;;;;;;4999639;28;20201;-84
2021/05/06 01:47:20;;;;;;;3.43;2.23;;;8.00;77.80;;;;;;5016952;28;20204;-84
2021/05/06 02:00:34;;;;;;;4.73;2.27;;;8.20;77.80;;;;;;5029641;28;20634;-84
2021/05/06 02:03:00;;;;;;;2.63;1.97;;;8.20;77.40;;;;;;5026798;28;20221;-85
2021/05/06 02:05:26;;;;;;;2.97;2.10;;;8.20;77.80;;;;;;5024394;28;20287;-84
2021/05/06 02:07:53;;;;;;;3.03;2.40;;;8.20;78.50;;;;;;5022215;28;20609;-84
2021/05/06 02:10:23;;;;;;;3.40;2.20;;;8.00;78.60;;;;;;5021963;28;20666;-84
2021/05/06 02:12:48;;;;;;;3.23;2.60;;;8.10;78.30;;;;;;5021785;28;20253;-84
2021/05/06 02:15:19;;;;;;;2.97;2.50;;;8.10;77.70;;;;;;5021392;28;20200;-85
2021/05/06 02:17:46;;;;;;;2.67;2.10;;;8.10;77.90;;;;;;5021135;28;20212;-85
2021/05/06 02:20:14;;;;;;;2.90;2.10;;;8.10;78.50;;;;;;5022053;28;20174;-85
2021/05/06 02:22:39;;;;;;;2.67;2.20;;;8.10;78.10;;;;;;5021535;28;20208;-84
2021/05/06 02:25:06;;;;;;;3.63;2.23;;;8.10;77.90;;;;;;5022491;28;20194;-84
2021/05/06 02:27:32;;;;;;;7.20;2.53;;;8.00;77.60;;;;;;5022806;28;20261;-86
2021/05/06 02:29:59;;;;;;;3.83;2.50;;;8.10;77.70;;;;;;5025403;28;20231;-84
2021/05/06 02:32:27;;;;;;;3.10;2.23;;;8.10;77.90;;;;;;5024507;28;20197;-84
2021/05/06 02:34:54;;;;;;;4.03;2.37;;;8.00;77.90;;;;;;5024788;28;20182;-85
2021/05/06 02:37:20;;;;;;;2.70;2.10;;;8.00;77.30;;;;;;5025858;28;20185;-85
2021/05/06 02:39:46;;;;;;;4.57;2.07;;;8.00;78.10;;;;;;5025903;28;20186;-84
2021/05/06 02:42:13;;;;;;;2.57;2.00;;;8.00;77.90;;;;;;5025502;28;20209;-85
2021/05/06 02:44:40;;;;;;;3.77;2.67;;;8.00;77.80;;;;;;5025332;28;20220;-86
2021/05/06 02:47:06;;;;;;;3.77;2.43;;;7.90;78.30;;;;;;5026379;28;20212;-85
2021/05/06 02:49:32;;;;;;;4.27;2.40;;;8.10;77.80;;;;;;5027520;28;20186;-87
2021/05/06 02:52:07;;;;;;;5.27;2.17;;;8.10;77.40;;;;;;5028085;28;20193;-85
2021/05/06 02:54:38;;;;;;;3.87;2.40;;;8.00;77.90;;;;;;5027707;28;20240;-85
2021/05/06 03:02:49;;;;;;;2.83;2.40;;;8.20;76.80;;;;;;5024578;28;20220;-86
2021/05/06 03:05:16;;;;;;;3.17;2.20;;;8.20;77.10;;;;;;5029244;28;20178;-85
2021/05/06 03:07:46;;;;;;;3.70;2.40;;;8.20;76.80;;;;;;5028914;28;20170;-85
2021/05/06 03:13:46;;;;;;;2.13;1.83;;;8.30;76.50;;;;;;5024869;28;20205;-85
2021/05/06 03:23:46;;;;;;;5.80;2.60;;;8.30;75.90;;;;;;5024761;28;20266;-84
2021/05/06 03:26:13;;;;;;;3.13;2.30;;;8.40;75.80;;;;;;5022131;28;20189;-85
2021/05/06 03:28:44;;;;;;;3.27;2.13;;;8.50;75.50;;;;;;5024014;28;20236;-85
2021/05/06 03:42:08;;;;;;;3.60;2.50;;;8.90;77.30;;;;;;4969937;28;20223;-85
2021/05/06 03:44:52;;;;;;;3.20;2.70;;;8.80;77.10;;;;;;5022894;28;20206;-85
2021/05/06 03:50:45;;;;;;;4.57;2.87;;;8.70;77.10;;;;;;5023402;28;20686;-85
2021/05/06 04:27:36;;;;;;;4.10;2.43;;;8.70;82.30;;;;;;5023054;28;20320;-87
2021/05/06 04:37:58;;;;;;;3.07;2.17;;;8.80;81.80;;;;;;5037945;28;20222;-85
2021/05/06 05:07:06;;;;;;;3.63;2.53;;;9.10;81.70;;;;;;5010943;28;20196;-87
2021/05/06 05:20:37;;;;;;;4.43;3.13;;;8.90;81.60;;;;;;5015524;28;20185;-87
2021/05/06 05:25:49;;;;;;;4.30;2.83;;;8.80;84.00;;;;;;5022808;28;20236;-87
2021/05/06 05:28:15;;;;;;;4.87;3.00;;;8.70;85.70;;;;;;5020428;28;20562;-87
2021/05/06 05:30:41;;;;;;;2.90;2.60;;;8.50;86.40;;;;;;5015132;28;20671;-87
2021/05/06 05:33:13;;;;;;;4.80;3.00;;;8.60;86.20;;;;;;5014585;28;21876;-87
2021/05/06 05:41:14;;;;;;;3.30;3.00;;;8.90;85.20;;;;;;5023379;28;20197;-87
2021/05/06 05:54:40;;;;;;;5.07;3.30;;;9.30;82.50;;;;;;5016404;28;20825;-87
2021/05/06 05:57:08;;;;;;;3.53;3.00;;;9.30;82.80;;;;;;5016253;28;20795;-86
2021/05/06 05:59:35;;;;;;;5.30;3.60;;;9.30;83.20;;;;;;5016466;28;20779;-86
2021/05/06 06:02:00;;;;;;;5.20;4.07;;;9.40;84.10;;;;;;5018581;28;20216;-86
2021/05/06 06:04:26;;;;;;;5.77;4.57;;;9.40;84.00;;;;;;5023639;28;20228;-86
2021/05/06 06:06:51;;;;;;;7.27;4.03;;;9.40;84.10;;;;;;5030284;28;20197;-86
2021/05/06 06:09:17;;;;;;;3.53;3.20;;;9.40;83.80;;;;;;5032904;28;20276;-87
2021/05/06 06:11:43;;;;;;;3.87;3.07;;;9.40;83.50;;;;;;5033750;28;20254;-87
2021/05/06 06:14:09;;;;;;;5.77;3.50;;;9.30;83.00;;;;;;5028031;28;20229;-86
2021/05/06 06:16:38;;;;;;;6.03;3.30;;;9.10;83.40;;;;;;5023810;28;20175;-86
2021/05/06 06:19:04;;;;;;;3.97;2.93;;;9.10;83.10;;;;;;5021515;28;20559;-86
2021/05/06 06:23:59;;;;;;;4.20;3.03;;;9.10;82.30;;;;;;5024703;28;20281;-86
2021/05/06 06:26:26;;;;;;;4.07;3.20;;;9.20;82.20;;;;;;5021210;28;20257;-86
2021/05/06 06:28:59;;;;;;;3.33;2.90;;;9.20;80.50;;;;;;5020807;28;20182;-86
2021/05/06 06:33:51;;;;;;;5.00;3.20;;;9.30;81.20;;;;;;5021446;28;20205;-86
2021/05/06 06:36:17;;;;;;;6.70;3.50;;;9.30;81.90;;;;;;5017007;28;20209;-85
2021/05/06 06:38:49;;;;;;;4.90;3.30;;;9.20;82.70;;;;;;5022748;28;20197;-86
2021/05/06 06:41:14;;;;;;;5.03;3.20;;;9.30;82.80;;;;;;5023475;28;20198;-86
2021/05/06 06:43:42;;;;;;;3.97;2.97;;;9.20;81.40;;;;;;5024660;28;20197;-86
2021/05/06 06:46:08;;;;;;;3.93;2.90;;;9.10;82.90;;;;;;5023520;28;20174;-86
2021/05/06 06:48:34;;;;;;;5.00;2.90;;;9.10;83.40;;;;;;5021012;28;20201;-86
2021/05/06 06:51:00;;;;;;;3.53;2.97;;;8.80;85.60;;;;;;5023479;28;20185;-86
2021/05/06 06:53:26;;;;;;;4.73;3.13;;;8.90;85.10;;;;;;5022928;28;20221;-86
2021/05/06 06:55:51;;;;;;;6.47;3.67;;;8.70;85.80;;;;;;5021279;28;20170;-87
2021/05/06 06:58:18;;;;;;;6.13;3.30;;;8.70;87.10;;;;;;5019231;28;20185;-87
2021/05/06 07:00:46;;;;;;;3.37;3.03;;;8.70;86.10;;;;;;5021286;28;20212;-86
2021/05/06 07:03:13;;;;;;;4.53;3.40;;;8.80;87.20;;;;;;5020479;28;20190;-86
2021/05/06 07:05:40;;;;;;;4.83;3.03;;;8.70;87.70;;;;;;5020398;28;20197;-86
2021/05/06 07:08:13;;;;;;;3.23;2.83;;;8.70;87.50;;;;;;5020679;28;20189;-86
2021/05/06 07:10:40;;;;;;;4.90;2.90;;;8.70;88.70;;;;;;5017506;28;20190;-86
2021/05/06 07:13:06;;;;;;;5.33;3.40;;;8.70;89.20;;;;;;5017617;28;20312;-86
2021/05/06 07:15:31;;;;;;;4.83;3.50;;;8.80;87.00;;;;;;5018349;28;20661;-86
2021/05/06 07:17:57;;;;;;;4.97;3.30;;;8.70;87.90;;;;;;5019461;28;20197;-86
2021/05/06 07:20:24;;;;;;;4.53;3.03;;;8.70;87.60;;;;;;5017774;28;20669;-86
2021/05/06 07:22:50;;;;;;;5.07;3.57;;;8.80;87.20;;;;;;5019323;28;20197;-86
2021/05/06 07:25:15;;;;;;;6.93;3.10;;;8.90;86.70;;;;;;5023129;28;20184;-86
2021/05/06 07:27:41;;;;;;;8.57;3.10;;;8.90;87.10;;;;;;5025831;28;20208;-86
2021/05/06 07:30:08;;;;;;;5.23;3.60;;;8.90;87.10;;;;;;5019377;28;20238;-86
2021/05/06 07:32:33;;;;;;;4.80;3.27;;;9.10;85.90;;;;;;5019040;28;20184;-86
2021/05/06 07:34:59;;;;;;;3.90;2.97;;;9.20;85.90;;;;;;5018913;28;20221;-86
2021/05/06 07:37:25;;;;;;;4.17;3.20;;;9.30;86.00;;;;;;5018189;28;20197;-86
2021/05/06 07:39:50;;;;;;;5.20;3.30;;;9.30;84.20;;;;;;5021162;28;20220;-86
2021/05/06 07:42:16;;;;;;;6.10;3.30;;;9.20;85.00;;;;;;5020873;28;20206;-87
2021/05/06 07:44:42;;;;;;;3.50;2.87;;;9.20;86.50;;;;;;5020627;28;20685;-86
2021/05/06 07:47:10;;;;;;;6.90;3.60;;;9.10;85.40;;;;;;5022829;28;20178;-86
2021/05/06 07:49:37;;;;;;;5.00;3.50;;;9.10;85.20;;;;;;5023341;28;20186;-86
2021/05/06 07:52:04;;;;;;;6.73;3.40;;;9.10;83.90;;;;;;5020110;28;20178;-86
2021/05/06 07:54:30;;;;;;;5.57;3.23;;;9.10;85.30;;;;;;5016096;28;20217;-86
2021/05/06 07:56:57;;;;;;;4.90;3.80;;;9.10;87.00;;;;;;5017251;28;20200;-86
2021/05/06 07:59:23;;;;;;;9.87;3.63;;;8.90;87.70;;;;;;5017521;28;20193;-86
2021/05/06 08:01:49;;;;;;;4.67;3.40;;;8.90;87.40;;;;;;5017694;28;20213;-86
2021/05/06 08:04:15;;;;;;;6.47;3.70;;;8.70;87.70;;;;;;5020047;28;20193;-86
2021/05/06 08:06:40;;;;;;;5.93;3.50;;;8.80;87.70;;;;;;5018223;28;20173;-86
2021/05/06 08:09:06;;;;;;;4.73;3.37;;;8.90;87.00;;;;;;5018056;28;20273;-86
2021/05/06 08:11:32;;;;;;;7.27;3.67;;;8.90;86.30;;;;;;5017931;28;20185;-86
2021/05/06 08:13:58;;;;;;;6.67;3.67;;;9.00;86.40;;;;;;5015292;28;20260;-86
2021/05/06 08:16:23;;;;;;;6.07;3.97;;;9.00;85.30;;;;;;5015315;28;20262;-87
2021/05/06 08:18:49;;;;;;;5.60;3.47;;;9.20;87.20;;;;;;5020355;28;20242;-87
2021/05/06 08:21:15;;;;;;;8.00;3.93;;;9.40;83.10;;;;;;5022568;28;20209;-87
2021/05/06 08:23:40;;;;;;;8.00;3.57;;;9.40;84.20;;;;;;5027164;28;20225;-87
2021/05/06 08:26:06;;;;;;;6.70;3.57;;;9.30;81.70;;;;;;5017009;28;20672;-87
2021/05/06 08:28:32;;;;;;;7.60;3.43;;;9.30;83.90;;;;;;5016118;28;20182;-87
2021/05/06 08:30:57;;;;;;;4.20;3.27;;;9.40;83.90;;;;;;5020334;28;20186;-87
2021/05/06 08:33:23;;;;;;;5.23;3.77;;;9.50;83.60;;;;;;5022248;28;20225;-86
2021/05/06 08:35:49;;;;;;;7.63;3.43;;;9.60;83.30;;;;;;5017895;28;20253;-87
2021/05/06 08:38:14;;;;;;;4.73;3.50;;;9.70;81.00;;;;;;5015513;28;20190;-87
2021/05/06 08:40:41;;;;;;;7.27;3.73;;;9.70;79.90;;;;;;5015043;28;20194;-86
2021/05/06 08:43:09;;;;;;;5.70;3.50;;;9.80;81.70;;;;;;5015429;28;20802;-86
2021/05/06 08:45:41;;;;;;;5.90;3.57;;;9.80;84.30;;;;;;5015467;28;20181;-86
2021/05/06 08:48:08;;;;;;;5.77;3.37;;;10.00;83.30;;;;;;5015257;28;20169;-87
2021/05/06 08:50:34;;;;;;;4.20;3.33;;;10.10;80.80;;;;;;5017069;28;20198;-86
2021/05/06 08:53:01;;;;;;;4.60;3.10;;;10.20;79.70;;;;;;5015712;28;20217;-86
2021/05/06 08:55:27;;;;;;;5.53;3.40;;;10.20;80.20;;;;;;5013258;28;20191;-86
2021/05/06 08:57:52;;;;;;;4.20;3.43;;;10.20;79.20;;;;;;5015937;28;20185;-87
2021/05/06 09:00:19;;;;;;;4.40;3.67;;;10.20;80.00;;;;;;5013624;28;20190;-87
2021/05/06 09:02:46;;;;;;;5.33;3.87;;;10.10;80.60;;;;;;5014953;28;20217;-87
2021/05/06 09:05:12;;;;;;;4.73;3.47;;;10.10;80.10;;;;;;5013468;28;20178;-86
2021/05/06 09:07:47;;;;;;;5.30;3.60;;;10.30;80.20;;;;;;5013743;28;20280;-86
2021/05/06 09:10:36;;;;;;;4.80;3.50;;;10.30;79.00;;;;;;5024229;28;20182;-86
2021/05/06 09:13:03;;;;;;;4.47;3.30;;;10.30;79.00;;;;;;5014799;28;20209;-86
2021/05/06 09:15:29;;;;;;;4.43;3.43;;;10.30;78.00;;;;;;5015633;28;20185;-86
2021/05/06 09:17:54;;;;;;;6.67;3.70;;;10.40;78.10;;;;;;5015258;28;20185;-86
2021/05/06 09:20:26;;;;;;;4.90;3.53;;;10.40;78.50;;;;;;5014881;28;20533;-86
2021/05/06 09:22:57;;;;;;;4.17;3.77;;;10.50;80.70;;;;;;5014809;28;20288;-86
2021/05/06 09:25:26;;;;;;;5.53;3.47;;;10.40;81.20;;;;;;5014615;28;20187;-86
2021/05/06 09:28:04;;;;;;;5.10;3.43;;;10.30;79.50;;;;;;5007962;28;20197;-86
2021/05/06 09:30:31;;;;;;;10.50;3.60;;;10.50;78.10;;;;;;5014018;28;20190;-86
2021/05/06 09:33:08;;;;;;;5.57;3.27;;;10.50;77.30;;;;;;5014280;28;20212;-85
2021/05/06 09:35:45;;;;;;;4.47;3.40;;;10.50;77.40;;;;;;5016060;28;20186;-86
2021/05/06 09:38:32;;;;;;;5.07;3.70;;;10.50;77.80;;;;;;5020629;28;20193;-85
2021/05/06 09:41:03;;;;;;;6.23;4.17;;;10.50;76.90;;;;;;5015168;28;20205;-85
2021/05/06 09:43:32;;;;;;;5.33;3.63;;;10.40;76.80;;;;;;5013811;28;20209;-86
2021/05/06 09:45:59;;;;;;;5.27;3.27;;;10.30;77.40;;;;;;5005460;28;20195;-87
2021/05/06 09:48:25;;;;;;;4.70;3.37;;;10.30;78.50;;;;;;5015484;28;20213;-85
2021/05/06 09:50:59;;;;;;;5.27;3.40;;;10.30;80.00;;;;;;5015560;28;20221;-85
2021/05/06 09:53:29;;;;;;;5.07;3.97;;;10.30;80.00;;;;;;5015227;28;20238;-85
2021/05/06 09:55:56;;;;;;;6.93;3.70;;;10.40;77.90;;;;;;5019538;28;20198;-87
2021/05/06 09:58:28;;;;;;;5.97;3.50;;;10.50;78.20;;;;;;5016614;28;20182;-85
2021/05/06 10:00:55;;;;;;;5.33;3.80;;;10.50;78.00;;;;;;5017803;28;20221;-85
2021/05/06 10:03:23;;;;;;;5.20;3.60;;;10.60;80.30;;;;;;5018412;28;20211;-86
2021/05/06 10:05:51;;;;;;;4.80;3.97;;;10.60;75.90;;;;;;5016436;28;20249;-87
2021/05/06 10:08:18;;;;;;;6.13;3.67;;;10.60;78.20;;;;;;5016711;28;20178;-87
2021/05/06 10:10:44;;;;;;;4.67;3.43;;;10.50;73.20;;;;;;5017259;28;20189;-87
2021/05/06 10:13:11;;;;;;;6.47;3.70;;;10.30;74.50;;;;;;5016472;28;20216;-86
2021/05/06 10:15:39;;;;;;;6.03;3.70;;;10.30;74.90;;;;;;5018606;28;20380;-87
2021/05/06 10:18:05;;;;;;;5.33;3.30;;;10.10;75.40;;;;;;5013130;28;20194;-86
2021/05/06 10:20:31;;;;;;;7.97;3.80;;;10.00;75.70;;;;;;5021607;28;20189;-85
2021/05/06 10:22:57;;;;;;;4.97;3.43;;;10.20;74.20;;;;;;5018614;28;20208;-86
2021/05/06 10:25:24;;;;;;;4.03;3.50;;;10.10;74.70;;;;;;5014595;28;20216;-85
2021/05/06 10:27:52;;;;;;;4.50;2.90;;;10.20;74.00;;;;;;5019436;28;20190;-85
2021/05/06 10:30:19;;;;;;;4.13;3.30;;;10.10;75.20;;;;;;5021143;28;20221;-85
2021/05/06 10:32:46;;;;;;;5.37;3.17;;;10.00;74.00;;;;;;5019054;28;20211;-86
2021/05/06 10:35:14;;;;;;;6.97;3.33;;;10.10;74.80;;;;;;5018177;28;20637;-85
2021/05/06 10:37:50;;;;;;;4.37;3.00;;;9.90;74.60;;;;;;5014695;28;20190;-85
2021/05/06 10:40:22;;;;;;;5.20;2.53;;;10.00;76.20;;;;;;5021167;28;20622;-85
2021/05/06 10:42:52;;;;;;;3.77;2.50;;;10.10;74.40;;;;;;5021000;28;20236;-85
2021/05/06 10:45:18;;;;;;;5.03;3.17;;;10.00;76.20;;;;;;5019886;28;20178;-85
2021/05/06 10:47:48;;;;;;;3.17;2.40;;;9.90;75.10;;;;;;5019476;28;20295;-85
2021/05/06 10:50:17;;;;;;;2.63;2.20;;;9.80;77.20;;;;;;5022399;28;20186;-85
2021/05/06 10:52:50;;;;;;;2.60;2.40;;;9.80;78.10;;;;;;5022591;28;20858;-83
2021/05/06 10:55:36;;;;;;;3.97;2.53;;;10.00;79.20;;;;;;5022156;28;20320;-85
2021/05/06 10:58:21;;;;;;;2.77;2.40;;;10.00;79.60;;;;;;5021737;28;20243;-85
2021/05/06 11:01:14;;;;;;;7.77;2.80;;;10.00;78.40;;;;;;5019340;28;20616;-86
2021/05/06 11:03:41;;;;;;;3.10;2.10;;;10.00;77.20;;;;;;5022774;28;20214;-84
2021/05/06 11:06:08;;;;;;;3.03;2.40;;;9.90;78.80;;;;;;5014437;28;20185;-84
2021/05/06 11:08:35;;;;;;;3.00;2.70;;;10.00;79.40;;;;;;5020480;28;20185;-85
2021/05/06 11:11:02;;;;;;;3.77;2.27;;;9.90;79.40;;;;;;5018995;28;20198;-84
2021/05/06 11:13:48;;;;;;;2.97;2.37;;;9.90;81.80;;;;;;5017331;28;20228;-85
2021/05/06 11:16:15;;;;;;;3.47;2.13;;;9.90;83.90;;;;;;5018003;28;20189;-84
2021/05/06 11:18:48;;;;;;;4.07;2.60;;;9.90;81.60;;;;;;5021064;28;20221;-84
2021/05/06 11:21:33;;;;;;;2.40;2.20;;;9.80;80.50;;;;;;5030374;28;20221;-85
2021/05/06 11:24:17;;;;;;;3.67;2.23;;;9.80;84.40;;;;;;5036676;28;20201;-84
2021/05/06 11:27:09;;;;;;;3.33;2.50;;;9.70;84.70;;;;;;5021411;28;20205;-85
2021/05/06 11:29:37;;;;;;;2.60;2.20;;;9.60;84.70;;;;;;5018049;28;20209;-84
2021/05/06 11:32:04;;;;;;;2.30;2.10;;;9.50;85.50;;;;;;5018357;28;20251;-86
2021/05/06 11:34:38;;;;;;;2.90;2.50;;;9.50;84.70;;;;;;5012613;28;20625;-86
2021/05/06 11:37:09;;;;;;;2.17;1.80;;;9.60;85.70;;;;;;5012338;28;20204;-86
2021/05/06 11:39:44;;;;;;;2.63;2.43;;;9.70;85.20;;;;;;5012138;28;20204;-86
2021/05/06 11:42:10;;;;;;;3.03;1.97;;;9.70;82.80;;;;;;5012714;28;20208;-86
2021/05/06 11:44:36;;;;;;;2.60;2.40;;;9.70;82.20;;;;;;5010797;28;20201;-86
2021/05/06 11:47:02;;;;;;;3.47;2.53;;;9.70;84.90;;;;;;5020333;28;20250;-87
2021/05/06 11:49:27;;;;;;;3.60;2.47;;;9.70;84.80;;;;;;5019699;28;20181;-87
2021/05/06 11:51:53;;;;;;;3.20;1.80;;;9.70;84.90;;;;;;5016732;28;20561;-87
2021/05/06 11:54:20;;;;;;;3.13;2.40;;;9.70;80.90;;;;;;5018887;28;20225;-87
2021/05/06 11:56:57;;;;;;;2.30;1.97;;;9.80;82.90;;;;;;5028294;28;20173;-87
2021/05/06 11:59:28;;;;;;;2.63;2.10;;;9.80;82.10;;;;;;5038447;28;20204;-87
2021/05/06 12:01:54;;;;;;;2.00;1.80;;;9.80;83.20;;;;;;5030470;28;20261;-87
2021/05/06 12:04:31;;;;;;;2.53;2.33;;;9.90;83.30;;;;;;5019837;28;20201;-88
2021/05/06 12:06:58;;;;;;;2.87;2.20;;;9.90;81.70;;;;;;5021014;28;20283;-87
2021/05/06 12:09:30;;;;;;;2.50;2.20;;;10.00;81.50;;;;;;5019445;28;20181;-87
2021/05/06 12:11:57;;;;;;;2.57;2.37;;;10.20;82.20;;;;;;5019620;28;20186;-87
2021/05/06 12:14:35;;;;;;;2.37;2.10;;;10.30;83.30;;;;;;5021228;28;20209;-87
2021/05/06 12:17:02;;;;;;;1.70;1.60;;;10.40;78.40;;;;;;5019554;28;20177;-87
2021/05/06 12:19:28;;;;;;;2.90;1.80;;;10.20;79.40;;;;;;5019145;28;20220;-87
2021/05/06 12:21:56;;;;;;;2.07;1.53;;;10.20;79.30;;;;;;5023343;28;20213;-87
2021/05/06 12:24:33;;;;;;;2.30;2.10;;;10.10;80.40;;;;;;5018976;28;20197;-86
2021/05/06 12:27:20;;;;;;;2.60;1.83;;;10.00;81.40;;;;;;5016877;28;20196;-86
2021/05/06 12:29:47;;;;;;;4.77;2.10;;;10.00;82.60;;;;;;5020083;28;20190;-86
2021/05/06 12:32:28;;;;;;;2.13;1.90;;;9.90;82.40;;;;;;5017799;28;20190;-86
2021/05/06 12:34:54;;;;;;;1.93;1.80;;;10.00;81.00;;;;;;5014861;28;20292;-87
2021/05/06 12:37:24;;;;;;;1.90;1.80;;;10.00;81.20;;;;;;5016731;28;20213;-87
2021/05/06 12:39:53;;;;;;;2.03;1.87;;;10.00;82.00;;;;;;5015495;28;20197;-87
2021/05/06 12:42:35;;;;;;;2.00;1.90;;;9.90;85.70;;;;;;5012696;28;20806;-88
2021/05/06 12:45:04;;;;;;;2.30;1.93;;;9.90;86.20;;;;;;5015956;28;20178;-87
2021/05/06 12:47:32;;;;;;;1.73;1.63;;;9.80;84.80;;;;;;4999498;28;20358;-88
2021/05/06 12:50:13;;;;;;;3.87;1.70;;;9.90;83.50;;;;;;5009818;28;20185;-88
2021/05/06 12:52:45;;;;;;;1.90;1.80;;;9.80;83.00;;;;;;5026020;28;20208;-88
2021/05/06 12:55:23;;;;;;;2.23;1.80;;;9.80;82.80;;;;;;5015764;28;20201;-87
2021/05/06 12:58:19;;;;;;;1.80;1.70;;;9.80;86.70;;;;;;5010370;28;20709;-88
2021/05/06 13:00:46;;;;;;;2.13;1.93;;;9.80;84.20;;;;;;5009502;28;20197;-87
2021/05/06 13:03:15;;;;;;;3.97;2.63;;;9.70;86.00;;;;;;5010024;28;20197;-87
2021/05/06 13:05:45;;;;;;;8.00;6.73;;;9.80;84.40;;;;;;5010893;28;20178;-87
2021/05/06 13:08:12;;;;;;;85.40;37.17;;;9.80;85.80;;;;;;5010795;28;20276;-87
2021/05/06 13:10:43;;;;;;;54.40;33.77;;;9.70;84.20;;;;;;5029291;28;20656;-87
2021/05/06 13:13:10;;;;;;;14.40;9.20;;;9.80;84.70;;;;;;5011198;28;20208;-86
2021/05/06 13:15:49;;;;;;;48.43;28.90;;;9.80;85.10;;;;;;5014018;28;20636;-86
2021/05/06 13:18:16;;;;;;;15.67;10.80;;;9.80;85.30;;;;;;5014640;28;20239;-87
2021/05/06 13:20:43;;;;;;;11.27;8.77;;;9.80;84.30;;;;;;5011026;28;20184;-88
2021/05/06 13:23:13;;;;;;;21.00;15.63;;;9.90;84.50;;;;;;5013997;28;20201;-87
2021/05/06 13:25:53;;;;;;;9.10;8.20;;;10.00;85.30;;;;;;5014003;28;20185;-87
2021/05/06 13:28:40;;;;;;;21.63;17.47;;;10.20;84.50;;;;;;5004250;28;20177;-87
2021/05/06 13:31:22;;;;;;;15.10;9.70;;;10.10;84.80;;;;;;5009818;28;20199;-88
2021/05/06 13:33:51;;;;;;;4.97;4.10;;;10.20;84.00;;;;;;5014415;28;20287;-88
2021/05/06 13:36:20;;;;;;;2.53;2.13;;;10.40;86.20;;;;;;5013207;28;20195;-88
2021/05/06 13:38:51;;;;;;;3.43;2.10;;;10.60;87.50;;;;;;5016787;28;20198;-88
2021/05/06 13:41:19;;;;;;;2.83;2.30;;;10.60;84.60;;;;;;5013565;28;20229;-88
2021/05/06 13:43:45;;;;;;;2.57;2.37;;;10.60;83.00;;;;;;5016210;28;20213;-87
2021/05/06 13:46:12;;;;;;;2.10;1.90;;;10.50;84.70;;;;;;5018886;28;20203;-88
2021/05/06 13:48:37;;;;;;;2.00;1.80;;;10.50;87.10;;;;;;5018699;28;20193;-88
2021/05/06 13:51:10;;;;;;;3.50;2.17;;;10.40;85.20;;;;;;5018697;28;20201;-88
2021/05/06 13:53:37;;;;;;;1.80;1.70;;;10.30;84.90;;;;;;5023066;28;20300;-88
2021/05/06 13:56:04;;;;;;;2.13;2.00;;;10.40;84.90;;;;;;5029235;28;20178;-87
2021/05/06 13:58:30;;;;;;;2.07;1.87;;;10.40;85.20;;;;;;5024289;28;20212;-89
2021/05/06 14:00:56;;;;;;;2.33;1.97;;;10.50;86.70;;;;;;5021701;28;20205;-90
2021/05/06 14:03:22;;;;;;;7.90;2.33;;;10.40;88.30;;;;;;5016905;28;20203;-90
2021/05/06 14:05:47;;;;;;;10.93;3.13;;;10.50;85.70;;;;;;5016773;28;20868;-89
2021/05/06 14:08:15;;;;;;;3.43;2.00;;;10.60;85.50;;;;;;5015660;28;20182;-90
2021/05/06 14:10:41;;;;;;;1.80;1.70;;;10.70;85.60;;;;;;5017889;28;20193;-89
2021/05/06 14:13:07;;;;;;;2.67;1.67;;;10.60;85.70;;;;;;5010866;28;20198;-88
2021/05/06 14:15:34;;;;;;;2.07;1.60;;;10.40;85.40;;;;;;5018800;28;20726;-91
2021/05/06 14:18:00;;;;;;;1.50;1.40;;;10.50;85.70;;;;;;5021634;28;20178;-92
2021/05/06 14:20:25;;;;;;;1.70;1.60;;;10.50;85.30;;;;;;5020812;28;20214;-89
2021/05/06 14:22:51;;;;;;;2.00;1.80;;;10.60;84.50;;;;;;5022174;28;20220;-89
2021/05/06 14:25:18;;;;;;;2.53;2.30;;;10.70;87.30;;;;;;5026336;28;20177;-91
2021/05/06 14:27:43;;;;;;;2.03;1.57;;;10.70;84.50;;;;;;5025147;28;20211;-91
2021/05/06 14:30:10;;;;;;;3.73;1.70;;;10.70;85.70;;;;;;5024716;28;20183;-90
2021/05/06 14:32:36;;;;;;;1.63;1.60;;;10.30;83.10;;;;;;5025358;28;20178;-90
2021/05/06 14:35:03;;;;;;;2.53;2.10;;;10.30;86.90;;;;;;5018247;28;20190;-90
2021/05/06 14:37:29;;;;;;;1.90;1.80;;;10.30;86.70;;;;;;5017695;28;20201;-89
2021/05/06 14:39:55;;;;;;;1.90;1.80;;;10.30;87.50;;;;;;5018369;28;20185;-90
2021/05/06 14:42:22;;;;;;;2.13;2.00;;;10.40;87.70;;;;;;5017698;28;20267;-90
2021/05/06 14:44:47;;;;;;;3.67;3.47;;;10.50;88.70;;;;;;5022008;28;20195;-90
2021/05/06 14:47:13;;;;;;;2.60;2.40;;;10.40;88.00;;;;;;5022452;28;20197;-89
2021/05/06 14:49:39;;;;;;;2.47;2.27;;;10.40;89.30;;;;;;5027435;28;20197;-91
2021/05/06 14:52:05;;;;;;;4.90;4.30;;;10.60;89.10;;;;;;5022475;28;20230;-92
2021/05/06 14:54:31;;;;;;;2.40;2.23;;;10.80;87.20;;;;;;5018266;28;20289;-89
2021/05/06 14:56:56;;;;;;;2.10;2.00;;;10.90;87.60;;;;;;5018525;28;20198;-89
2021/05/06 14:59:22;;;;;;;2.40;2.20;;;10.80;86.30;;;;;;5024573;28;20213;-89
2021/05/06 15:01:48;;;;;;;1.97;1.73;;;10.80;89.90;;;;;;4990929;28;20214;-89
2021/05/06 15:04:14;;;;;;;2.17;1.70;;;10.80;89.40;;;;;;5021341;28;20242;-88
2021/05/06 15:06:39;;;;;;;2.27;2.17;;;11.00;89.90;;;;;;5020335;28;20664;-89
2021/05/06 15:09:06;;;;;;;2.40;2.20;;;11.00;87.00;;;;;;5018473;28;20407;-91
2021/05/06 15:11:33;;;;;;;2.40;2.20;;;11.00;87.90;;;;;;5022469;28;20211;-89
2021/05/06 15:13:59;;;;;;;2.50;2.30;;;11.30;89.50;;;;;;5022332;28;20296;-90
2021/05/06 15:16:25;;;;;;;2.40;2.10;;;11.40;88.20;;;;;;5027742;28;20199;-91
2021/05/06 15:18:51;;;;;;;5.93;5.13;;;11.60;88.80;;;;;;5026303;28;20250;-89
2021/05/06 15:21:16;;;;;;;3.40;3.20;;;11.40;88.20;;;;;;5022982;28;20693;-89
2021/05/06 15:23:42;;;;;;;4.00;3.60;;;11.50;89.60;;;;;;5024609;28;20203;-89
2021/05/06 15:26:08;;;;;;;2.50;2.30;;;11.50;88.90;;;;;;5026860;28;20187;-91
2021/05/06 15:28:33;;;;;;;2.47;2.27;;;11.60;84.50;;;;;;5026183;28;20203;-92
2021/05/06 15:31:00;;;;;;;2.90;2.07;;;11.60;85.10;;;;;;5031239;28;20828;-89
2021/05/06 15:33:25;;;;;;;1.90;1.80;;;11.50;85.20;;;;;;5022177;28;20216;-88
2021/05/06 15:35:51;;;;;;;2.20;2.00;;;11.60;85.40;;;;;;5021074;28;20190;-89
2021/05/06 15:38:19;;;;;;;1.90;1.70;;;11.40;86.20;;;;;;5033029;28;20188;-90
2021/05/06 15:40:47;;;;;;;2.00;1.80;;;11.40;86.90;;;;;;5024665;28;20264;-90
2021/05/06 15:43:13;;;;;;;2.53;1.70;;;11.40;86.50;;;;;;5020197;28;20607;-87
2021/05/06 15:45:41;;;;;;;5.80;5.40;;;11.30;83.50;;;;;;5027373;28;20188;-91
2021/05/06 15:48:09;;;;;;;1.97;1.70;;;11.40;86.00;;;;;;5009818;28;20204;-88
2021/05/06 15:50:35;;;;;;;3.33;2.10;;;11.50;83.70;;;;;;5025295;28;20194;-91
2021/05/06 15:53:01;;;;;;;2.10;1.80;;;11.20;86.90;;;;;;5021610;28;20230;-89
2021/05/06 15:55:27;;;;;;;2.13;1.70;;;11.00;89.60;;;;;;5025071;28;20205;-90
2021/05/06 15:57:53;;;;;;;2.80;2.50;;;11.10;89.40;;;;;;5023169;28;20203;-89
2021/05/06 16:00:20;;;;;;;3.30;2.10;;;10.90;87.40;;;;;;5025097;28;20205;-93
2021/05/06 16:02:47;;;;;;;3.20;2.90;;;10.80;88.50;;;;;;5024320;28;20305;-87
2021/05/06 16:05:24;;;;;;;2.87;2.53;;;10.80;90.20;;;;;;5009359;28;20200;-91
2021/05/06 16:07:50;;;;;;;5.50;5.00;;;10.80;89.00;;;;;;5008076;28;20190;-93
2021/05/06 16:10:16;;;;;;;3.37;3.10;;;10.70;90.00;;;;;;5006291;28;20194;-90
2021/05/06 16:12:41;;;;;;;12.80;8.57;;;10.70;90.40;;;;;;5031469;28;20217;-90
2021/05/06 16:15:08;;;;;;;9.23;5.90;;;10.70;88.20;;;;;;5021793;28;20194;-90
2021/05/06 16:17:33;;;;;;;3.70;2.80;;;10.80;89.40;;;;;;5022262;28;20557;-90
2021/05/06 16:20:01;;;;;;;58.47;26.53;;;10.90;88.50;;;;;;5020939;28;20223;-91
2021/05/06 16:22:27;;;;;;;27.20;15.13;;;10.90;90.60;;;;;;5023090;28;20295;-90
2021/05/06 16:24:53;;;;;;;5.63;4.20;;;11.00;89.60;;;;;;5023583;28;20187;-92
2021/05/06 16:27:18;;;;;;;2.30;2.10;;;11.00;90.30;;;;;;5004404;28;20321;-91
2021/05/06 16:29:44;;;;;;;3.00;2.70;;;10.80;90.30;;;;;;5022591;28;20257;-89
2021/05/06 16:32:10;;;;;;;3.63;2.37;;;10.80;91.40;;;;;;5020133;28;20225;-88